sensor_id;sensor_type;location;lat;lon;timestamp;pressure;altitude;pressure_sealevel;temperature;humidity
76257;BME280;65074;50.436;8.672;2022-11-18T00:00:09;97620.13;;;6.81;100.00
76257;BME280;65074;50.436;8.672;2022-11-18T00:02:35;97624.38;;;6.82;100.00
76257;BME280;65074;50.436;8.672;2022-11-18T00:05:00;97622.81;;;6.86;100.00
76257;BME280;65074;50.436;8.672;2022-11-18T00:07:26;97625.72;;;6.85;100.00
76257;BME280;65074;50.436;8.672;2022-11-18T00:09:51;97624.38;;;6.82;100.00
76257;BME280;65074;50.436;8.672;2022-11-18T00:12:16;97627.59;;;6.84;100.00
76257;BME280;65074;50.436;8.672;2022-11-18T00:15:00;97628.41;;;6.85;100.00
76257;BME280;65074;50.436;8.672;2022-11-18T00:17:26;97635.09;;;6.87;100.00
76257;BME280;65074;50.436;8.672;2022-11-18T00:19:51;97623.34;;;6.88;100.00
76257;BME280;65074;50.436;8.672;2022-11-18T00:22:16;97631.59;;;6.87;100.00
76257;BME280;65074;50.436;8.672;2022-11-18T00:24:42;97624.91;;;6.84;100.00
76257;BME280;65074;50.436;8.672;2022-11-18T00:27:07;97630.81;;;6.86;100.00
76257;BME280;65074;50.436;8.672;2022-11-18T00:29:34;97635.88;;;6.88;100.00
76257;BME280;65074;50.436;8.672;2022-11-18T00:31:59;97633.47;;;6.96;100.00
76257;BME280;65074;50.436;8.672;2022-11-18T00:34:24;97628.91;;;7.07;100.00
76257;BME280;65074;50.436;8.672;2022-11-18T00:36:50;97632.41;;;7.12;100.00
76257;BME280;65074;50.436;8.672;2022-11-18T00:39:17;97633.47;;;7.11;100.00
76257;BME280;65074;50.436;8.672;2022-11-18T00:41:43;97626.78;;;7.09;100.00
76257;BME280;65074;50.436;8.672;2022-11-18T00:44:27;97637.22;;;7.00;100.00
76257;BME280;65074;50.436;8.672;2022-11-18T00:46:53;97628.69;;;7.03;100.00
76257;BME280;65074;50.436;8.672;2022-11-18T00:49:18;97635.88;;;7.08;100.00
76257;BME280;65074;50.436;8.672;2022-11-18T00:51:44;97634.25;;;7.12;100.00
76257;BME280;65074;50.436;8.672;2022-11-18T00:54:09;97630.25;;;7.09;100.00
76257;BME280;65074;50.436;8.672;2022-11-18T00:56:34;97634.53;;;7.05;100.00
76257;BME280;65074;50.436;8.672;2022-11-18T00:59:00;97627.06;;;7.02;100.00
76257;BME280;65074;50.436;8.672;2022-11-18T01:01:25;97637.22;;;7.05;100.00
76257;BME280;65074;50.436;8.672;2022-11-18T01:03:51;97633.47;;;7.01;100.00
76257;BME280;65074;50.436;8.672;2022-11-18T01:06:16;97640.94;;;6.99;100.00
76257;BME280;65074;50.436;8.672;2022-11-18T01:08:42;97638.03;;;7.01;100.00
76257;BME280;65074;50.436;8.672;2022-11-18T01:11:07;97646.31;;;7.04;100.00
76257;BME280;65074;50.436;8.672;2022-11-18T01:13:51;97645.50;;;7.09;100.00
76257;BME280;65074;50.436;8.672;2022-11-18T01:16:19;97652.19;;;7.11;100.00
76257;BME280;65074;50.436;8.672;2022-11-18T01:18:45;97640.69;;;7.11;100.00
76257;BME280;65074;50.436;8.672;2022-11-18T01:21:10;97650.59;;;7.10;100.00
76257;BME280;65074;50.436;8.672;2022-11-18T01:23:36;97649.78;;;7.15;100.00
76257;BME280;65074;50.436;8.672;2022-11-18T01:26:06;97650.31;;;7.17;100.00
76257;BME280;65074;50.436;8.672;2022-11-18T01:28:32;97662.34;;;7.25;100.00
76257;BME280;65074;50.436;8.672;2022-11-18T01:31:12;97663.16;;;7.20;100.00
76257;BME280;65074;50.436;8.672;2022-11-18T01:33:37;97658.84;;;7.19;100.00
76257;BME280;65074;50.436;8.672;2022-11-18T01:36:03;97665.28;;;7.18;100.00
76257;BME280;65074;50.436;8.672;2022-11-18T01:38:32;97665.53;;;7.16;100.00
76257;BME280;65074;50.436;8.672;2022-11-18T01:40:57;97664.72;;;7.16;100.00
76257;BME280;65074;50.436;8.672;2022-11-18T01:43:23;97663.69;;;7.12;100.00
76257;BME280;65074;50.436;8.672;2022-11-18T01:45:50;97670.09;;;7.11;100.00
76257;BME280;65074;50.436;8.672;2022-11-18T01:48:31;97671.69;;;7.12;100.00
76257;BME280;65074;50.436;8.672;2022-11-18T01:51:05;97670.06;;;7.16;100.00
76257;BME280;65074;50.436;8.672;2022-11-18T01:53:37;97670.88;;;7.21;100.00
76257;BME280;65074;50.436;8.672;2022-11-18T01:56:09;97677.03;;;7.27;100.00
76257;BME280;65074;50.436;8.672;2022-11-18T01:58:39;97685.34;;;7.31;100.00
76257;BME280;65074;50.436;8.672;2022-11-18T02:01:05;97676.75;;;7.34;100.00
76257;BME280;65074;50.436;8.672;2022-11-18T02:03:32;97671.41;;;7.34;100.00
76257;BME280;65074;50.436;8.672;2022-11-18T02:05:59;97678.09;;;7.36;100.00
76257;BME280;65074;50.436;8.672;2022-11-18T02:08:25;97670.34;;;7.40;100.00
76257;BME280;65074;50.436;8.672;2022-11-18T02:10:58;97672.72;;;7.46;100.00
76257;BME280;65074;50.436;8.672;2022-11-18T02:13:24;97670.34;;;7.45;100.00
76257;BME280;65074;50.436;8.672;2022-11-18T02:18:46;97676.75;;;7.44;100.00
76257;BME280;65074;50.436;8.672;2022-11-18T02:27:30;97683.97;;;7.38;100.00
76257;BME280;65074;50.436;8.672;2022-11-18T02:30:07;97680.22;;;7.44;100.00
76257;BME280;65074;50.436;8.672;2022-11-18T02:32:40;97677.28;;;7.41;100.00
76257;BME280;65074;50.436;8.672;2022-11-18T02:38:01;97679.72;;;7.27;100.00
76257;BME280;65074;50.436;8.672;2022-11-18T02:40:35;97676.22;;;7.27;100.00
76257;BME280;65074;50.436;8.672;2022-11-18T02:43:13;97671.41;;;7.29;100.00
76257;BME280;65074;50.436;8.672;2022-11-18T02:45:43;97677.03;;;7.32;100.00
76257;BME280;65074;50.436;8.672;2022-11-18T02:48:10;97678.38;;;7.30;100.00
76257;BME280;65074;50.436;8.672;2022-11-18T02:50:40;97677.56;;;7.29;100.00
76257;BME280;65074;50.436;8.672;2022-11-18T02:53:09;97685.88;;;7.33;100.00
76257;BME280;65074;50.436;8.672;2022-11-18T02:55:38;97679.72;;;7.37;100.00
76257;BME280;65074;50.436;8.672;2022-11-18T02:58:05;97686.63;;;7.43;100.00
76257;BME280;65074;50.436;8.672;2022-11-18T03:00:32;97685.88;;;7.38;100.00
76257;BME280;65074;50.436;8.672;2022-11-18T03:02:57;97686.38;;;7.40;100.00
76257;BME280;65074;50.436;8.672;2022-11-18T03:05:44;97687.97;;;7.41;100.00
76257;BME280;65074;50.436;8.672;2022-11-18T03:08:16;97688.00;;;7.36;100.00
76257;BME280;65074;50.436;8.672;2022-11-18T03:10:53;97683.72;;;7.35;100.00
76257;BME280;65074;50.436;8.672;2022-11-18T03:13:32;97680.00;;;7.26;100.00
76257;BME280;65074;50.436;8.672;2022-11-18T03:16:09;97687.47;;;7.18;100.00
76257;BME280;65074;50.436;8.672;2022-11-18T03:18:52;97681.88;;;7.10;100.00
76257;BME280;65074;50.436;8.672;2022-11-18T03:21:30;97696.84;;;7.01;100.00
76257;BME280;65074;50.436;8.672;2022-11-18T03:24:14;97705.91;;;7.00;100.00
76257;BME280;65074;50.436;8.672;2022-11-18T03:26:45;97698.97;;;6.99;100.00
76257;BME280;65074;50.436;8.672;2022-11-18T03:29:16;97708.59;;;7.00;100.00
76257;BME280;65074;50.436;8.672;2022-11-18T03:31:50;97706.44;;;6.97;100.00
76257;BME280;65074;50.436;8.672;2022-11-18T03:34:21;97718.75;;;6.98;100.00
76257;BME280;65074;50.436;8.672;2022-11-18T03:36:53;97720.09;;;6.95;100.00
76257;BME280;65074;50.436;8.672;2022-11-18T03:39:20;97725.44;;;6.90;100.00
76257;BME280;65074;50.436;8.672;2022-11-18T03:41:54;97728.63;;;6.87;100.00
76257;BME280;65074;50.436;8.672;2022-11-18T03:44:31;97732.91;;;6.88;100.00
76257;BME280;65074;50.436;8.672;2022-11-18T03:47:07;97742.75;;;6.73;100.00
76257;BME280;65074;50.436;8.672;2022-11-18T03:49:44;97749.94;;;6.57;100.00
76257;BME280;65074;50.436;8.672;2022-11-18T03:52:14;97752.84;;;6.50;100.00
76257;BME280;65074;50.436;8.672;2022-11-18T03:54:44;97758.44;;;6.39;100.00
76257;BME280;65074;50.436;8.672;2022-11-18T03:57:15;97750.13;;;6.35;100.00
76257;BME280;65074;50.436;8.672;2022-11-18T04:00:08;97758.44;;;6.44;100.00
76257;BME280;65074;50.436;8.672;2022-11-18T04:02:36;97765.88;;;6.32;100.00
76257;BME280;65074;50.436;8.672;2022-11-18T04:05:03;97768.25;;;6.28;100.00
76257;BME280;65074;50.436;8.672;2022-11-18T04:07:32;97770.91;;;6.23;100.00
76257;BME280;65074;50.436;8.672;2022-11-18T04:10:16;97775.47;;;6.28;100.00
76257;BME280;65074;50.436;8.672;2022-11-18T04:12:45;97766.13;;;6.30;100.00
76257;BME280;65074;50.436;8.672;2022-11-18T04:15:15;97771.19;;;6.22;100.00
76257;BME280;65074;50.436;8.672;2022-11-18T04:17:41;97771.38;;;6.10;100.00
76257;BME280;65074;50.436;8.672;2022-11-18T04:20:18;97769.50;;;6.11;100.00
76257;BME280;65074;50.436;8.672;2022-11-18T04:22:45;97767.31;;;6.03;100.00
76257;BME280;65074;50.436;8.672;2022-11-18T04:25:11;97774.56;;;6.02;100.00
76257;BME280;65074;50.436;8.672;2022-11-18T04:27:37;97778.00;;;6.03;100.00
76257;BME280;65074;50.436;8.672;2022-11-18T04:30:04;97782.78;;;6.01;100.00
76257;BME280;65074;50.436;8.672;2022-11-18T04:32:29;97778.81;;;6.03;100.00
76257;BME280;65074;50.436;8.672;2022-11-18T04:34:55;97780.41;;;5.99;100.00
76257;BME280;65074;50.436;8.672;2022-11-18T04:37:20;97782.56;;;6.02;100.00
76257;BME280;65074;50.436;8.672;2022-11-18T04:39:46;97783.59;;;6.01;100.00
76257;BME280;65074;50.436;8.672;2022-11-18T04:42:11;97784.66;;;6.00;100.00
76257;BME280;65074;50.436;8.672;2022-11-18T04:44:36;97792.66;;;6.00;100.00
76257;BME280;65074;50.436;8.672;2022-11-18T04:47:04;97786.78;;;5.98;100.00
76257;BME280;65074;50.436;8.672;2022-11-18T04:49:29;97798.00;;;6.00;100.00
76257;BME280;65074;50.436;8.672;2022-11-18T04:51:56;97797.47;;;5.98;100.00
76257;BME280;65074;50.436;8.672;2022-11-18T04:54:22;97789.75;;;6.02;100.00
76257;BME280;65074;50.436;8.672;2022-11-18T04:56:48;97799.88;;;6.00;100.00
76257;BME280;65074;50.436;8.672;2022-11-18T04:59:16;97800.16;;;6.03;100.00
76257;BME280;65074;50.436;8.672;2022-11-18T05:01:41;97791.63;;;6.01;100.00
76257;BME280;65074;50.436;8.672;2022-11-18T05:04:07;97803.91;;;6.02;100.00
76257;BME280;65074;50.436;8.672;2022-11-18T05:06:33;97802.81;;;6.03;100.00
76257;BME280;65074;50.436;8.672;2022-11-18T05:08:59;97807.13;;;6.04;100.00
76257;BME280;65074;50.436;8.672;2022-11-18T05:11:26;97806.59;;;6.07;100.00
76257;BME280;65074;50.436;8.672;2022-11-18T05:14:11;97812.25;;;6.16;100.00
76257;BME280;65074;50.436;8.672;2022-11-18T05:16:37;97812.53;;;6.14;100.00
76257;BME280;65074;50.436;8.672;2022-11-18T05:19:03;97813.03;;;6.11;100.00
76257;BME280;65074;50.436;8.672;2022-11-18T05:21:29;97814.38;;;6.14;100.00
76257;BME280;65074;50.436;8.672;2022-11-18T05:23:55;97814.66;;;6.17;100.00
76257;BME280;65074;50.436;8.672;2022-11-18T05:26:22;97816.81;;;6.20;100.00
76257;BME280;65074;50.436;8.672;2022-11-18T05:28:47;97821.63;;;6.23;100.00
76257;BME280;65074;50.436;8.672;2022-11-18T05:31:14;97825.94;;;6.24;100.00
76257;BME280;65074;50.436;8.672;2022-11-18T05:33:40;97829.94;;;6.27;100.00
76257;BME280;65074;50.436;8.672;2022-11-18T05:36:08;97826.50;;;6.31;100.00
76257;BME280;65074;50.436;8.672;2022-11-18T05:38:34;97830.28;;;6.45;100.00
76257;BME280;65074;50.436;8.672;2022-11-18T05:41:01;97832.94;;;6.40;100.00
76257;BME280;65074;50.436;8.672;2022-11-18T05:43:26;97835.91;;;6.44;100.00
76257;BME280;65074;50.436;8.672;2022-11-18T05:45:52;97832.69;;;6.47;100.00
76257;BME280;65074;50.436;8.672;2022-11-18T05:48:18;97834.03;;;6.44;100.00
76257;BME280;65074;50.436;8.672;2022-11-18T05:50:47;97841.53;;;6.47;100.00
76257;BME280;65074;50.436;8.672;2022-11-18T05:53:14;97846.41;;;6.61;100.00
76257;BME280;65074;50.436;8.672;2022-11-18T05:55:47;97848.78;;;6.62;100.00
76257;BME280;65074;50.436;8.672;2022-11-18T05:58:15;97854.16;;;6.62;100.00
76257;BME280;65074;50.436;8.672;2022-11-18T06:00:40;97860.28;;;6.57;100.00
76257;BME280;65074;50.436;8.672;2022-11-18T06:03:18;97853.31;;;6.51;100.00
76257;BME280;65074;50.436;8.672;2022-11-18T06:05:44;97859.41;;;6.47;100.00
76257;BME280;65074;50.436;8.672;2022-11-18T06:08:11;97866.09;;;6.49;100.00
76257;BME280;65074;50.436;8.672;2022-11-18T06:10:41;97866.38;;;6.48;100.00
76257;BME280;65074;50.436;8.672;2022-11-18T06:13:10;97866.41;;;6.53;100.00
76257;BME280;65074;50.436;8.672;2022-11-18T06:15:41;97873.38;;;6.59;100.00
76257;BME280;65074;50.436;8.672;2022-11-18T06:18:21;97870.97;;;6.63;100.00
76257;BME280;65074;50.436;8.672;2022-11-18T06:20:50;97867.78;;;6.61;100.00
76257;BME280;65074;50.436;8.672;2022-11-18T06:23:17;97880.59;;;6.59;100.00
76257;BME280;65074;50.436;8.672;2022-11-18T06:25:43;97876.56;;;6.56;100.00
76257;BME280;65074;50.436;8.672;2022-11-18T06:28:09;97881.09;;;6.55;100.00
76257;BME280;65074;50.436;8.672;2022-11-18T06:30:36;97882.72;;;6.57;100.00
76257;BME280;65074;50.436;8.672;2022-11-18T06:33:02;97884.59;;;6.56;100.00
76257;BME280;65074;50.436;8.672;2022-11-18T06:35:27;97883.78;;;6.55;100.00
76257;BME280;65074;50.436;8.672;2022-11-18T06:37:52;97888.59;;;6.53;100.00
76257;BME280;65074;50.436;8.672;2022-11-18T06:40:18;97896.84;;;6.52;100.00
76257;BME280;65074;50.436;8.672;2022-11-18T06:42:43;97891.22;;;6.48;100.00
76257;BME280;65074;50.436;8.672;2022-11-18T06:45:30;97895.72;;;6.43;100.00
76257;BME280;65074;50.436;8.672;2022-11-18T06:47:56;97905.59;;;6.42;100.00
76257;BME280;65074;50.436;8.672;2022-11-18T06:50:22;97907.72;;;6.40;100.00
76257;BME280;65074;50.436;8.672;2022-11-18T06:52:49;97914.41;;;6.43;100.00
76257;BME280;65074;50.436;8.672;2022-11-18T06:55:15;97920.06;;;6.46;100.00
76257;BME280;65074;50.436;8.672;2022-11-18T06:57:40;97926.19;;;6.47;100.00
76257;BME280;65074;50.436;8.672;2022-11-18T07:00:06;97931.56;;;6.52;100.00
76257;BME280;65074;50.436;8.672;2022-11-18T07:02:34;97931.56;;;6.52;100.00
76257;BME280;65074;50.436;8.672;2022-11-18T07:05:00;97925.69;;;6.50;100.00
76257;BME280;65074;50.436;8.672;2022-11-18T07:07:25;97927.53;;;6.49;100.00
76257;BME280;65074;50.436;8.672;2022-11-18T07:09:51;97937.97;;;6.51;100.00
76257;BME280;65074;50.436;8.672;2022-11-18T07:12:16;97943.88;;;6.53;100.00
76257;BME280;65074;50.436;8.672;2022-11-18T07:14:42;97943.56;;;6.49;100.00
76257;BME280;65074;50.436;8.672;2022-11-18T07:17:07;97945.47;;;6.49;100.00
76257;BME280;65074;50.436;8.672;2022-11-18T07:19:32;97946.25;;;6.49;100.00
76257;BME280;65074;50.436;8.672;2022-11-18T07:21:58;97951.34;;;6.51;100.00
76257;BME280;65074;50.436;8.672;2022-11-18T07:24:24;97949.47;;;6.51;100.00
76257;BME280;65074;50.436;8.672;2022-11-18T07:26:51;97955.09;;;6.55;100.00
76257;BME280;65074;50.436;8.672;2022-11-18T07:29:20;97960.44;;;6.55;100.00
76257;BME280;65074;50.436;8.672;2022-11-18T07:31:45;97967.41;;;6.56;100.00
76257;BME280;65074;50.436;8.672;2022-11-18T07:34:11;97960.19;;;6.57;100.00
76257;BME280;65074;50.436;8.672;2022-11-18T07:36:37;97969.31;;;6.61;100.00
76257;BME280;65074;50.436;8.672;2022-11-18T07:39:04;97971.75;;;6.67;100.00
76257;BME280;65074;50.436;8.672;2022-11-18T07:41:30;97972.53;;;6.68;100.00
76257;BME280;65074;50.436;8.672;2022-11-18T07:44:00;97968.28;;;6.72;100.00
76257;BME280;65074;50.436;8.672;2022-11-18T07:46:32;97984.06;;;6.73;100.00
76257;BME280;65074;50.436;8.672;2022-11-18T07:49:01;97979.28;;;6.75;100.00
76257;BME280;65074;50.436;8.672;2022-11-18T07:51:29;97982.22;;;6.74;100.00
76257;BME280;65074;50.436;8.672;2022-11-18T07:53:55;97986.47;;;6.75;100.00
76257;BME280;65074;50.436;8.672;2022-11-18T07:56:21;97989.97;;;6.75;100.00
76257;BME280;65074;50.436;8.672;2022-11-18T07:58:47;97998.53;;;6.77;100.00
76257;BME280;65074;50.436;8.672;2022-11-18T08:01:18;97999.34;;;6.78;100.00
76257;BME280;65074;50.436;8.672;2022-11-18T08:03:45;97998.56;;;6.82;100.00
76257;BME280;65074;50.436;8.672;2022-11-18T08:06:12;97997.00;;;6.91;100.00
76257;BME280;65074;50.436;8.672;2022-11-18T08:08:38;97998.38;;;6.99;100.00
76257;BME280;65074;50.436;8.672;2022-11-18T08:11:07;97998.97;;;7.06;100.00
76257;BME280;65074;50.436;8.672;2022-11-18T08:13:36;98001.44;;;7.17;100.00
76257;BME280;65074;50.436;8.672;2022-11-18T08:16:02;98004.34;;;7.16;100.00
76257;BME280;65074;50.436;8.672;2022-11-18T08:18:29;98004.88;;;7.13;100.00
76257;BME280;65074;50.436;8.672;2022-11-18T08:20:55;98003.88;;;7.29;100.00
76257;BME280;65074;50.436;8.672;2022-11-18T08:23:20;98010.88;;;7.40;100.00
76257;BME280;65074;50.436;8.672;2022-11-18T08:25:46;98009.72;;;7.21;100.00
76257;BME280;65074;50.436;8.672;2022-11-18T08:28:12;98016.97;;;7.20;100.00
76257;BME280;65074;50.436;8.672;2022-11-18T08:30:38;98017.25;;;7.29;100.00
76257;BME280;65074;50.436;8.672;2022-11-18T08:33:03;98019.94;;;7.34;100.00
76257;BME280;65074;50.436;8.672;2022-11-18T08:35:30;98015.47;;;7.45;100.00
76257;BME280;65074;50.436;8.672;2022-11-18T08:37:56;98015.53;;;7.70;100.00
76257;BME280;65074;50.436;8.672;2022-11-18T08:40:21;98021.22;;;7.99;100.00
76257;BME280;65074;50.436;8.672;2022-11-18T08:42:47;98016.69;;;8.09;100.00
76257;BME280;65074;50.436;8.672;2022-11-18T08:45:12;98020.97;;;8.15;100.00
76257;BME280;65074;50.436;8.672;2022-11-18T08:47:38;98025.03;;;8.33;100.00
76257;BME280;65074;50.436;8.672;2022-11-18T08:50:06;98026.91;;;8.37;100.00
76257;BME280;65074;50.436;8.672;2022-11-18T08:52:31;98031.47;;;8.52;100.00
76257;BME280;65074;50.436;8.672;2022-11-18T08:54:57;98031.47;;;8.57;100.00
76257;BME280;65074;50.436;8.672;2022-11-18T08:57:22;98030.41;;;8.73;100.00
76257;BME280;65074;50.436;8.672;2022-11-18T08:59:48;98039.78;;;8.81;100.00
76257;BME280;65074;50.436;8.672;2022-11-18T09:02:18;98035.47;;;8.80;100.00
76257;BME280;65074;50.436;8.672;2022-11-18T09:04:48;98037.63;;;8.83;100.00
76257;BME280;65074;50.436;8.672;2022-11-18T09:07:15;98048.59;;;8.91;100.00
76257;BME280;65074;50.436;8.672;2022-11-18T09:09:44;98051.28;;;8.91;100.00
76257;BME280;65074;50.436;8.672;2022-11-18T09:12:09;98056.13;;;8.79;100.00
76257;BME280;65074;50.436;8.672;2022-11-18T09:14:40;98061.47;;;8.84;100.00
76257;BME280;65074;50.436;8.672;2022-11-18T09:17:10;98064.69;;;8.91;100.00
76257;BME280;65074;50.436;8.672;2022-11-18T09:19:36;98070.88;;;8.87;100.00
76257;BME280;65074;50.436;8.672;2022-11-18T09:22:02;98070.34;;;8.90;100.00
76257;BME280;65074;50.436;8.672;2022-11-18T09:24:27;98070.34;;;8.90;100.00
76257;BME280;65074;50.436;8.672;2022-11-18T09:26:53;98067.66;;;8.85;100.00
76257;BME280;65074;50.436;8.672;2022-11-18T09:29:18;98069.81;;;8.88;100.00
76257;BME280;65074;50.436;8.672;2022-11-18T09:31:44;98077.56;;;8.94;100.00
76257;BME280;65074;50.436;8.672;2022-11-18T09:34:10;98077.81;;;9.08;100.00
76257;BME280;65074;50.436;8.672;2022-11-18T09:36:35;98068.97;;;9.07;100.00
76257;BME280;65074;50.436;8.672;2022-11-18T09:39:00;98076.50;;;9.10;100.00
76257;BME280;65074;50.436;8.672;2022-11-18T09:41:43;98079.69;;;9.12;100.00
76257;BME280;65074;50.436;8.672;2022-11-18T09:44:28;98086.94;;;9.17;100.00
76257;BME280;65074;50.436;8.672;2022-11-18T09:49:58;98091.97;;;9.39;100.00
76257;BME280;65074;50.436;8.672;2022-11-18T09:52:30;98091.44;;;9.42;100.00
76257;BME280;65074;50.436;8.672;2022-11-18T09:54:57;98086.25;;;9.60;100.00
76257;BME280;65074;50.436;8.672;2022-11-18T09:57:26;98078.75;;;9.67;100.00
76257;BME280;65074;50.436;8.672;2022-11-18T09:59:54;98086.44;;;9.84;100.00
76257;BME280;65074;50.436;8.672;2022-11-18T10:02:31;98083.75;;;9.89;100.00
76257;BME280;65074;50.436;8.672;2022-11-18T10:05:13;98088.16;;;10.24;100.00
76257;BME280;65074;50.436;8.672;2022-11-18T10:10:30;98088.78;;;10.50;99.68
76257;BME280;65074;50.436;8.672;2022-11-18T10:13:13;98090.97;;;10.81;98.99
76257;BME280;65074;50.436;8.672;2022-11-18T10:16:34;98087.41;;;10.91;98.22
76257;BME280;65074;50.436;8.672;2022-11-18T10:21:54;98092.16;;;11.28;96.51
76257;BME280;65074;50.436;8.672;2022-11-18T10:24:26;98104.16;;;11.64;94.82
76257;BME280;65074;50.436;8.672;2022-11-18T10:26:56;98098.53;;;11.37;95.26
76257;BME280;65074;50.436;8.672;2022-11-18T10:29:22;98095.59;;;11.33;96.51
76257;BME280;65074;50.436;8.672;2022-11-18T10:31:55;98101.22;;;11.37;95.06
76257;BME280;65074;50.436;8.672;2022-11-18T10:34:23;98105.91;;;11.26;96.37
76257;BME280;65074;50.436;8.672;2022-11-18T10:36:59;98107.47;;;11.32;97.16
76257;BME280;65074;50.436;8.672;2022-11-18T10:39:25;98107.59;;;11.46;96.85
76257;BME280;65074;50.436;8.672;2022-11-18T10:41:52;98113.50;;;11.19;95.93
76257;BME280;65074;50.436;8.672;2022-11-18T10:44:37;98102.91;;;10.99;96.09
76257;BME280;65074;50.436;8.672;2022-11-18T10:47:22;98110.59;;;10.48;97.27
76257;BME280;65074;50.436;8.672;2022-11-18T10:49:48;98110.16;;;10.31;99.11
76257;BME280;65074;50.436;8.672;2022-11-18T10:52:14;98120.66;;;10.27;96.48
76257;BME280;65074;50.436;8.672;2022-11-18T10:54:40;98118.28;;;10.21;96.93
76257;BME280;65074;50.436;8.672;2022-11-18T10:57:20;98123.59;;;10.31;98.20
76257;BME280;65074;50.436;8.672;2022-11-18T10:59:55;98122.53;;;10.32;96.79
76257;BME280;65074;50.436;8.672;2022-11-18T11:02:34;98127.50;;;10.00;97.44
76257;BME280;65074;50.436;8.672;2022-11-18T11:05:18;98126.19;;;9.92;100.00
76257;BME280;65074;50.436;8.672;2022-11-18T11:07:44;98118.13;;;9.87;100.00
76257;BME280;65074;50.436;8.672;2022-11-18T11:12:40;98120.16;;;10.10;100.00
76257;BME280;65074;50.436;8.672;2022-11-18T11:15:18;98125.53;;;10.20;99.98
76257;BME280;65074;50.436;8.672;2022-11-18T11:17:51;98129.84;;;10.16;100.00
76257;BME280;65074;50.436;8.672;2022-11-18T11:20:38;98123.97;;;11.26;98.29
76257;BME280;65074;50.436;8.672;2022-11-18T11:23:14;98129.78;;;11.04;95.18
76257;BME280;65074;50.436;8.672;2022-11-18T11:31:28;98126.94;;;11.53;93.98
76257;BME280;65074;50.436;8.672;2022-11-18T11:34:00;98126.75;;;11.68;94.47
76257;BME280;65074;50.436;8.672;2022-11-18T11:42:13;98142.16;;;11.62;92.91
76257;BME280;65074;50.436;8.672;2022-11-18T11:52:46;98146.88;;;11.23;95.70
76257;BME280;65074;50.436;8.672;2022-11-18T11:55:55;98143.41;;;10.45;95.15
76257;BME280;65074;50.436;8.672;2022-11-18T12:04:49;98148.28;;;9.69;100.00
76257;BME280;65074;50.436;8.672;2022-11-18T12:07:21;98145.09;;;9.57;100.00
76257;BME280;65074;50.436;8.672;2022-11-18T12:12:52;98155.75;;;9.82;99.63
76257;BME280;65074;50.436;8.672;2022-11-18T12:15:38;98145.56;;;9.74;100.00
76257;BME280;65074;50.436;8.672;2022-11-18T12:18:25;98142.53;;;9.96;97.16
76257;BME280;65074;50.436;8.672;2022-11-18T12:20:53;98148.72;;;11.28;94.75
76257;BME280;65074;50.436;8.672;2022-11-18T12:30:49;98151.59;;;10.10;97.61
76257;BME280;65074;50.436;8.672;2022-11-18T12:33:16;98148.88;;;10.25;97.88
76257;BME280;65074;50.436;8.672;2022-11-18T12:35:47;98157.53;;;10.22;97.20
76257;BME280;65074;50.436;8.672;2022-11-18T12:38:30;98159.13;;;10.18;96.68
76257;BME280;65074;50.436;8.672;2022-11-18T12:40:56;98148.97;;;10.05;96.71
76257;BME280;65074;50.436;8.672;2022-11-18T12:51:48;98159.38;;;10.26;94.17
76257;BME280;65074;50.436;8.672;2022-11-18T12:54:27;98155.09;;;10.20;95.78
76257;BME280;65074;50.436;8.672;2022-11-18T12:56:57;98153.16;;;10.31;95.44
76257;BME280;65074;50.436;8.672;2022-11-18T12:59:32;98168.50;;;10.25;95.68
76257;BME280;65074;50.436;8.672;2022-11-18T13:02:04;98161.38;;;10.50;94.80
76257;BME280;65074;50.436;8.672;2022-11-18T13:04:30;98156.34;;;10.38;94.37
76257;BME280;65074;50.436;8.672;2022-11-18T13:06:56;98165.72;;;10.45;92.90
76257;BME280;65074;50.436;8.672;2022-11-18T13:09:25;98169.94;;;11.29;90.28
76257;BME280;65074;50.436;8.672;2022-11-18T13:12:00;98162.69;;;11.87;88.47
76257;BME280;65074;50.436;8.672;2022-11-18T13:14:38;98166.53;;;11.19;91.96
76257;BME280;65074;50.436;8.672;2022-11-18T13:17:29;98160.63;;;11.17;91.85
76257;BME280;65074;50.436;8.672;2022-11-18T13:20:34;98169.56;;;10.78;92.72
76257;BME280;65074;50.436;8.672;2022-11-18T13:23:45;98172.13;;;10.50;92.58
76257;BME280;65074;50.436;8.672;2022-11-18T13:26:10;98176.31;;;10.22;92.89
76257;BME280;65074;50.436;8.672;2022-11-18T13:31:34;98181.72;;;10.07;96.12
76257;BME280;65074;50.436;8.672;2022-11-18T13:34:18;98191.22;;;9.74;97.49
76257;BME280;65074;50.436;8.672;2022-11-18T13:36:45;98188.53;;;9.79;97.14
76257;BME280;65074;50.436;8.672;2022-11-18T13:39:17;98191.53;;;9.67;98.39
76257;BME280;65074;50.436;8.672;2022-11-18T13:41:45;98197.44;;;9.44;98.48
76257;BME280;65074;50.436;8.672;2022-11-18T13:44:25;98193.44;;;9.37;99.21
76257;BME280;65074;50.436;8.672;2022-11-18T13:46:57;98195.88;;;9.28;97.01
76257;BME280;65074;50.436;8.672;2022-11-18T13:52:18;98203.09;;;9.12;99.89
76257;BME280;65074;50.436;8.672;2022-11-18T13:54:49;98204.44;;;9.15;100.00
76257;BME280;65074;50.436;8.672;2022-11-18T13:57:19;98202.81;;;9.14;100.00
76257;BME280;65074;50.436;8.672;2022-11-18T13:59:47;98206.84;;;9.27;99.80
76257;BME280;65074;50.436;8.672;2022-11-18T14:02:14;98201.47;;;9.27;100.00
76257;BME280;65074;50.436;8.672;2022-11-18T14:04:51;98202.28;;;9.22;100.00
76257;BME280;65074;50.436;8.672;2022-11-18T14:07:35;98199.63;;;9.22;98.31
76257;BME280;65074;50.436;8.672;2022-11-18T14:10:07;98198.00;;;9.26;99.43
76257;BME280;65074;50.436;8.672;2022-11-18T14:12:34;98207.91;;;9.36;98.84
76257;BME280;65074;50.436;8.672;2022-11-18T14:15:20;98202.28;;;9.17;99.05
76257;BME280;65074;50.436;8.672;2022-11-18T14:17:59;98202.56;;;9.15;99.41
76257;BME280;65074;50.436;8.672;2022-11-18T14:20:27;98206.31;;;9.14;100.00
76257;BME280;65074;50.436;8.672;2022-11-18T14:22:55;98213.84;;;9.12;100.00
76257;BME280;65074;50.436;8.672;2022-11-18T14:25:25;98215.72;;;9.12;100.00
76257;BME280;65074;50.436;8.672;2022-11-18T14:27:53;98215.44;;;9.08;100.00